createdAt,value
2022-10-14T00:01:27.218Z,14.86
2022-10-14T00:04:29.889Z,14.81
2022-10-14T00:07:31.276Z,14.79
2022-10-14T00:10:32.675Z,14.72
2022-10-14T00:13:35.078Z,14.70
2022-10-14T00:16:38.985Z,14.61
2022-10-14T00:19:40.455Z,14.54
2022-10-14T00:22:41.825Z,14.50
2022-10-14T00:25:43.192Z,14.45
2022-10-14T00:28:44.761Z,14.44
2022-10-14T00:31:47.184Z,14.46
2022-10-14T00:34:50.335Z,14.56
2022-10-14T00:37:51.732Z,14.57
2022-10-14T00:40:55.086Z,14.55
2022-10-14T00:44:00.941Z,14.55
2022-10-14T00:47:02.441Z,14.59
2022-10-14T00:50:04.203Z,14.57
2022-10-14T00:53:05.855Z,14.61
2022-10-14T00:56:09.077Z,14.62
2022-10-14T00:59:11.682Z,14.61
2022-10-14T01:02:13.323Z,14.62
2022-10-14T01:05:17.466Z,14.59
2022-10-14T01:08:30.860Z,14.55
2022-10-14T01:11:41.818Z,14.54
2022-10-14T01:14:54.489Z,14.54
2022-10-14T01:18:28.411Z,14.53
2022-10-14T01:21:43.682Z,14.51
2022-10-14T01:25:09.570Z,14.53
2022-10-14T01:28:49.553Z,14.53
2022-10-14T01:32:04.124Z,14.54
2022-10-14T01:35:19.520Z,14.53
2022-10-14T01:38:29.301Z,14.52
2022-10-14T01:41:39.057Z,14.50
2022-10-14T01:44:45.182Z,14.46
2022-10-14T01:47:50.129Z,14.44
2022-10-14T01:50:55.649Z,14.43
2022-10-14T01:54:06.104Z,14.50
2022-10-14T01:57:30.468Z,14.51
2022-10-14T02:00:32.026Z,14.52
2022-10-14T02:03:42.153Z,14.53
2022-10-14T02:07:02.658Z,14.52
2022-10-14T02:10:45.672Z,14.47
2022-10-14T02:13:54.937Z,14.46
2022-10-14T02:17:19.365Z,14.53
2022-10-14T02:20:28.206Z,14.50
2022-10-14T02:23:38.938Z,14.51
2022-10-14T02:26:42.327Z,14.48
2022-10-14T02:29:47.239Z,14.48
2022-10-14T02:32:51.963Z,14.51
2022-10-14T02:35:54.899Z,14.50
2022-10-14T02:38:59.597Z,14.50
2022-10-14T02:42:01.377Z,14.50
2022-10-14T02:45:03.364Z,14.45
2022-10-14T02:48:05.518Z,14.45
2022-10-14T02:51:06.967Z,14.45
2022-10-14T02:54:08.496Z,14.46
2022-10-14T02:57:09.940Z,14.47
2022-10-14T03:00:11.890Z,14.52
2022-10-14T03:03:13.488Z,14.53
2022-10-14T03:06:15.090Z,14.55
2022-10-14T03:09:17.210Z,14.55
2022-10-14T03:12:20.639Z,14.55
2022-10-14T03:15:23.849Z,14.56
2022-10-14T03:18:25.697Z,14.56
2022-10-14T03:21:32.953Z,14.56
2022-10-14T03:24:34.595Z,14.53
2022-10-14T03:27:57.103Z,14.54
2022-10-14T03:31:11.072Z,14.54
2022-10-14T03:34:38.431Z,14.55
2022-10-14T03:37:47.451Z,14.55
2022-10-14T03:40:51.683Z,14.52
2022-10-14T03:43:54.105Z,14.51
2022-10-14T03:46:56.006Z,14.49
2022-10-14T03:50:05.041Z,14.44
2022-10-14T03:53:15.376Z,14.41
2022-10-14T03:56:18.275Z,14.44
2022-10-14T03:59:20.480Z,14.45
2022-10-14T04:02:24.756Z,14.46
2022-10-14T04:05:33.687Z,14.45
2022-10-14T04:08:38.496Z,14.48
2022-10-14T04:12:01.654Z,14.44
2022-10-14T04:15:29.020Z,14.46
2022-10-14T04:18:43.604Z,14.49
2022-10-14T04:21:46.833Z,14.48
2022-10-14T04:24:51.032Z,14.48
2022-10-14T04:27:52.584Z,14.48
2022-10-14T04:30:54.203Z,14.47
2022-10-14T04:34:00.599Z,14.44
2022-10-14T04:37:07.790Z,14.44
2022-10-14T04:40:30.609Z,14.39
2022-10-14T04:43:32.735Z,14.36
2022-10-14T04:46:46.714Z,14.34
2022-10-14T04:49:48.534Z,14.32
2022-10-14T04:52:55.052Z,14.32
2022-10-14T04:55:57.477Z,14.29
2022-10-14T04:58:58.932Z,14.31
2022-10-14T05:02:17.703Z,14.29
2022-10-14T05:05:25.146Z,14.30
2022-10-14T05:08:30.589Z,14.28
2022-10-14T05:11:34.554Z,14.30
2022-10-14T05:14:37.030Z,14.29
2022-10-14T05:17:48.810Z,14.31
2022-10-14T05:20:54.053Z,14.32
2022-10-14T05:23:58.319Z,14.30
2022-10-14T05:27:02.860Z,14.30
2022-10-14T05:30:06.634Z,14.30
2022-10-14T05:33:13.236Z,14.30
2022-10-14T05:36:16.215Z,14.29
2022-10-14T05:39:17.704Z,14.27
2022-10-14T05:42:19.346Z,14.32
2022-10-14T05:45:21.963Z,14.30
2022-10-14T05:48:27.053Z,14.28
2022-10-14T05:51:28.615Z,14.27
2022-10-14T05:54:37.902Z,14.29
2022-10-14T05:57:43.582Z,14.29
2022-10-14T06:00:47.565Z,14.30
2022-10-14T06:03:53.024Z,14.30
2022-10-14T06:06:54.504Z,14.32
2022-10-14T06:09:55.943Z,14.34
2022-10-14T06:12:57.370Z,14.33
2022-10-14T06:16:07.441Z,14.35
2022-10-14T06:19:08.893Z,14.40
2022-10-14T06:22:10.386Z,14.44
2022-10-14T06:25:11.785Z,14.47
2022-10-14T06:28:13.267Z,14.55
2022-10-14T06:31:15.177Z,14.63
2022-10-14T06:34:16.585Z,14.65
2022-10-14T06:37:17.997Z,14.65
2022-10-14T06:40:19.640Z,14.69
2022-10-14T06:43:22.071Z,14.68
2022-10-14T06:46:25.180Z,14.73
2022-10-14T06:49:26.574Z,14.70
2022-10-14T06:52:27.995Z,14.68
2022-10-14T06:55:29.753Z,14.67
2022-10-14T06:58:32.603Z,14.66
2022-10-14T07:01:34.102Z,14.67
2022-10-14T07:04:35.679Z,14.65
2022-10-14T07:07:37.083Z,14.65
2022-10-14T07:10:38.482Z,14.71
2022-10-14T07:13:39.997Z,14.71
2022-10-14T07:16:43.606Z,14.71
2022-10-14T07:19:45.379Z,14.79
2022-10-14T07:22:46.873Z,14.85
2022-10-14T07:25:48.255Z,14.85
2022-10-14T07:28:49.730Z,14.88
2022-10-14T07:31:51.220Z,14.93
2022-10-14T07:34:52.620Z,14.95
2022-10-14T07:37:54.810Z,14.99
2022-10-14T07:41:05.262Z,15.07
2022-10-14T07:44:09.348Z,15.04
2022-10-14T07:47:10.775Z,15.08
2022-10-14T07:50:12.493Z,15.13
2022-10-14T07:53:13.859Z,15.17
2022-10-14T07:56:15.476Z,15.21
2022-10-14T07:59:19.326Z,15.24
2022-10-14T08:02:21.029Z,15.30
2022-10-14T08:05:39.020Z,15.34
2022-10-14T08:08:41.447Z,15.35
2022-10-14T08:11:43.289Z,15.36
2022-10-14T08:14:44.794Z,15.36
2022-10-14T08:17:46.469Z,15.36
2022-10-14T08:20:47.876Z,15.35
2022-10-14T08:23:49.594Z,15.27
2022-10-14T08:26:53.648Z,15.29
2022-10-14T08:29:55.024Z,15.32
2022-10-14T08:32:56.481Z,15.31
2022-10-14T08:35:57.896Z,15.28
2022-10-14T08:38:59.360Z,15.32
2022-10-14T08:42:17.872Z,15.35
2022-10-14T08:45:32.642Z,15.32
2022-10-14T08:48:35.215Z,15.35
2022-10-14T08:51:38.026Z,15.37
2022-10-14T08:54:44.120Z,15.34
2022-10-14T08:57:53.873Z,15.44
2022-10-14T09:00:56.172Z,15.45
2022-10-14T09:04:06.230Z,15.50
2022-10-14T09:07:16.048Z,15.59
2022-10-14T09:10:39.410Z,15.58
2022-10-14T09:13:43.967Z,15.64
2022-10-14T09:16:51.794Z,15.67
2022-10-14T09:20:05.221Z,15.70
2022-10-14T09:23:15.791Z,15.76
2022-10-14T09:26:19.759Z,15.78
2022-10-14T09:29:46.545Z,15.85
2022-10-14T09:32:54.111Z,16.01
2022-10-14T09:39:03.809Z,15.99
2022-10-14T09:42:17.999Z,16.01
2022-10-14T09:45:22.641Z,16.05
2022-10-14T09:48:50.052Z,16.08
2022-10-14T09:51:51.954Z,16.02
2022-10-14T09:55:01.495Z,16.03
2022-10-14T09:58:14.016Z,16.09
2022-10-14T10:01:19.022Z,16.17
2022-10-14T10:04:33.537Z,16.24
2022-10-14T10:07:35.285Z,16.43
2022-10-14T10:10:36.882Z,16.45
2022-10-14T10:13:47.017Z,16.35
2022-10-14T10:17:12.583Z,16.33
2022-10-14T10:20:33.450Z,16.39
2022-10-14T10:23:36.344Z,16.44
2022-10-14T10:26:37.764Z,16.38
2022-10-14T10:29:39.143Z,16.39
2022-10-14T10:33:06.593Z,16.38
2022-10-14T10:36:11.029Z,16.46
2022-10-14T10:39:48.036Z,16.50
2022-10-14T10:43:11.498Z,16.61
2022-10-14T10:46:21.888Z,16.59
2022-10-14T10:49:44.473Z,16.59
2022-10-14T10:53:04.697Z,16.57
2022-10-14T10:56:20.225Z,16.56
2022-10-14T10:59:40.011Z,16.57
2022-10-14T11:02:45.816Z,16.59
2022-10-14T11:06:07.004Z,16.56
2022-10-14T11:09:48.670Z,16.53
2022-10-14T11:13:02.171Z,16.47
2022-10-14T11:16:26.291Z,16.50
2022-10-14T11:19:40.691Z,16.40
2022-10-14T11:23:11.466Z,16.42
2022-10-14T11:26:47.252Z,16.40
2022-10-14T11:30:06.654Z,16.39
2022-10-14T11:33:47.674Z,16.41
2022-10-14T11:37:18.050Z,16.39
2022-10-14T11:40:47.003Z,16.35
2022-10-14T11:44:32.253Z,16.32
2022-10-14T11:47:38.627Z,16.32
2022-10-14T11:50:45.743Z,16.32
2022-10-14T11:54:04.039Z,16.35
2022-10-14T11:57:32.596Z,16.40
2022-10-14T12:00:56.760Z,16.51
2022-10-14T12:04:10.688Z,16.56
2022-10-14T12:07:17.948Z,16.66
2022-10-14T12:10:26.786Z,16.68
2022-10-14T12:13:41.648Z,16.66
2022-10-14T12:16:45.857Z,16.72
2022-10-14T12:19:47.653Z,16.78
2022-10-14T12:22:50.667Z,16.87
2022-10-14T12:26:02.230Z,16.96
2022-10-14T12:29:14.605Z,16.93
2022-10-14T12:32:16.088Z,16.97
2022-10-14T12:35:51.716Z,16.93
2022-10-14T12:39:18.561Z,16.92
2022-10-14T12:42:22.189Z,16.94
2022-10-14T12:45:26.734Z,16.92
2022-10-14T12:48:36.225Z,16.86
2022-10-14T12:51:37.658Z,16.83
2022-10-14T12:54:48.271Z,16.78
2022-10-14T12:57:55.154Z,16.72
2022-10-14T13:01:05.972Z,16.68
2022-10-14T13:04:19.979Z,16.69
2022-10-14T13:07:41.200Z,16.80
2022-10-14T13:10:59.608Z,16.86
2022-10-14T13:14:02.139Z,16.90
2022-10-14T13:17:24.479Z,16.98
2022-10-14T13:20:35.139Z,17.01
2022-10-14T13:24:05.869Z,16.94
2022-10-14T13:27:56.796Z,16.92
2022-10-14T13:31:21.631Z,16.98
2022-10-14T13:34:43.745Z,17.01
2022-10-14T13:38:12.505Z,16.86
2022-10-14T13:41:18.651Z,16.84
2022-10-14T13:44:22.950Z,16.77
2022-10-14T13:47:26.085Z,16.67
2022-10-14T13:50:34.379Z,16.61
2022-10-14T13:53:35.961Z,16.60
2022-10-14T13:56:37.669Z,16.64
2022-10-14T13:59:47.016Z,16.61
2022-10-14T14:03:20.298Z,16.61
2022-10-14T14:06:24.418Z,16.70
2022-10-14T14:09:29.158Z,16.65
2022-10-14T14:12:30.947Z,16.64
2022-10-14T14:15:40.497Z,16.62
2022-10-14T14:18:56.031Z,16.60
2022-10-14T14:22:19.598Z,16.62
2022-10-14T14:25:34.038Z,16.64
2022-10-14T14:28:36.660Z,16.70
2022-10-14T14:32:01.819Z,16.71
2022-10-14T14:35:01.253Z,16.67
2022-10-14T14:38:03.404Z,16.62
2022-10-14T14:41:05.138Z,16.61
2022-10-14T14:44:24.479Z,16.59
2022-10-14T14:47:27.680Z,16.57
2022-10-14T14:50:42.760Z,16.45
2022-10-14T14:53:51.725Z,16.48
2022-10-14T14:57:00.894Z,16.48
2022-10-14T15:00:06.125Z,16.46
2022-10-14T15:03:09.079Z,16.39
2022-10-14T15:06:17.661Z,16.36
2022-10-14T15:09:30.064Z,16.30
2022-10-14T15:12:39.068Z,16.32
2022-10-14T15:15:53.517Z,16.34
2022-10-14T15:19:13.009Z,16.38
2022-10-14T15:22:17.447Z,16.43
2022-10-14T15:25:22.705Z,16.43
2022-10-14T15:28:30.576Z,16.39
2022-10-14T15:31:38.967Z,16.38
2022-10-14T15:34:41.040Z,16.34
2022-10-14T15:37:42.445Z,16.37
2022-10-14T15:40:45.992Z,16.36
2022-10-14T15:43:48.249Z,16.39
2022-10-14T15:47:08.817Z,16.48
2022-10-14T15:50:21.141Z,16.49
2022-10-14T15:53:26.868Z,16.52
2022-10-14T15:56:29.362Z,16.56
2022-10-14T15:59:31.002Z,16.51
2022-10-14T16:02:33.406Z,16.46
2022-10-14T16:05:36.590Z,16.49
2022-10-14T16:08:44.311Z,16.45
2022-10-14T16:11:46.146Z,16.41
2022-10-14T16:14:47.560Z,16.37
2022-10-14T16:17:52.071Z,16.35
2022-10-14T16:20:54.928Z,16.36
2022-10-14T16:23:58.603Z,16.29
2022-10-14T16:27:02.995Z,16.35
2022-10-14T16:30:04.845Z,16.36
2022-10-14T16:33:06.552Z,16.35
2022-10-14T16:36:13.305Z,16.25
2022-10-14T16:39:15.689Z,16.29
2022-10-14T16:42:18.439Z,16.27
2022-10-14T16:45:20.311Z,16.26
2022-10-14T16:48:21.789Z,16.26
2022-10-14T16:51:24.583Z,16.25
2022-10-14T16:54:26.142Z,16.28
2022-10-14T16:57:28.198Z,16.37
2022-10-14T17:00:29.591Z,16.30
2022-10-14T17:03:30.979Z,16.33
2022-10-14T17:06:32.614Z,16.36
2022-10-14T17:09:36.464Z,16.39
2022-10-14T17:12:39.378Z,16.42
2022-10-14T17:15:40.806Z,16.43
2022-10-14T17:18:42.471Z,16.44
2022-10-14T17:21:49.259Z,16.44
2022-10-14T17:24:50.751Z,16.39
2022-10-14T17:27:52.459Z,16.34
2022-10-14T17:30:54.016Z,16.31
2022-10-14T17:33:56.020Z,16.27
2022-10-14T17:36:59.461Z,16.26
2022-10-14T17:40:01.113Z,16.29
2022-10-14T17:43:02.572Z,16.27
2022-10-14T17:49:15.791Z,16.24
2022-10-14T17:52:17.208Z,16.23
2022-10-14T17:58:25.043Z,16.22
2022-10-14T18:01:37.016Z,16.19
2022-10-14T18:04:39.503Z,16.19
2022-10-14T18:07:40.971Z,16.19
2022-10-14T18:10:42.470Z,16.20
2022-10-14T18:13:43.954Z,16.19
2022-10-14T18:16:45.748Z,16.20
2022-10-14T18:19:51.848Z,16.18
2022-10-14T18:22:53.920Z,16.21
2022-10-14T18:25:55.381Z,16.25
2022-10-14T18:29:00.948Z,16.23
2022-10-14T18:32:02.540Z,16.21
2022-10-14T18:35:05.510Z,16.20
2022-10-14T18:38:07.005Z,16.21
2022-10-14T18:41:11.970Z,16.22
2022-10-14T18:44:13.471Z,16.15
2022-10-14T18:47:14.996Z,16.10
2022-10-14T18:50:16.517Z,16.08
2022-10-14T18:53:17.894Z,16.07
2022-10-14T18:56:22.729Z,16.03
2022-10-14T18:59:24.174Z,15.98
2022-10-14T19:02:25.732Z,15.98
2022-10-14T19:05:32.197Z,15.99
2022-10-14T19:08:39.849Z,16.05
2022-10-14T19:11:41.770Z,16.07
2022-10-14T19:14:43.776Z,16.07
2022-10-14T19:17:50.917Z,16.00
2022-10-14T19:20:57.976Z,15.95
2022-10-14T19:24:01.925Z,15.86
2022-10-14T19:27:03.416Z,15.87
2022-10-14T19:30:05.498Z,15.84
2022-10-14T19:33:06.902Z,15.82
2022-10-14T19:36:09.354Z,15.79
2022-10-14T19:39:13.677Z,15.74
2022-10-14T19:42:15.087Z,15.73
2022-10-14T19:45:16.685Z,15.72
2022-10-14T19:48:18.092Z,15.69
2022-10-14T19:51:19.514Z,15.66
2022-10-14T19:54:20.921Z,15.58
2022-10-14T19:57:22.662Z,15.59
2022-10-14T20:00:24.276Z,15.57
2022-10-14T20:03:26.674Z,15.56
2022-10-14T20:06:35.410Z,15.57
2022-10-14T20:09:36.830Z,15.53
2022-10-14T20:12:38.355Z,15.52
2022-10-14T20:15:39.849Z,15.49
2022-10-14T20:18:41.750Z,15.46
2022-10-14T20:21:43.281Z,15.48
2022-10-14T20:24:44.879Z,15.48
2022-10-14T20:27:46.257Z,15.47
2022-10-14T20:30:48.207Z,15.43
2022-10-14T20:33:49.615Z,15.43
2022-10-14T20:36:51.002Z,15.40
2022-10-14T20:39:53.810Z,15.38
2022-10-14T20:42:55.489Z,15.37
2022-10-14T20:45:56.902Z,15.34
2022-10-14T20:48:58.402Z,15.32
2022-10-14T20:51:59.807Z,15.34
2022-10-14T20:55:01.342Z,15.37
2022-10-14T20:58:03.469Z,15.34
2022-10-14T21:01:16.938Z,15.32
2022-10-14T21:04:18.427Z,15.32
2022-10-14T21:07:23.293Z,15.32
2022-10-14T21:10:24.948Z,15.36
2022-10-14T21:13:27.854Z,15.35
2022-10-14T21:16:34.341Z,15.35
2022-10-14T21:19:35.788Z,15.32
2022-10-14T21:22:37.192Z,15.30
2022-10-14T21:25:38.657Z,15.32
2022-10-14T21:28:40.738Z,15.29
2022-10-14T21:31:42.285Z,15.29
2022-10-14T21:34:43.674Z,15.30
2022-10-14T21:37:45.068Z,15.28
2022-10-14T21:40:46.503Z,15.30
2022-10-14T21:43:47.876Z,15.28
2022-10-14T21:46:49.594Z,15.27
2022-10-14T21:49:51.013Z,15.32
2022-10-14T21:52:52.469Z,15.30
2022-10-14T21:55:53.863Z,15.32
2022-10-14T21:58:55.685Z,15.29
2022-10-14T22:01:58.900Z,15.32
2022-10-14T22:05:00.590Z,15.32
2022-10-14T22:08:02.071Z,15.32
2022-10-14T22:11:04.610Z,15.32
2022-10-14T22:14:08.448Z,15.29
2022-10-14T22:17:09.950Z,15.27
2022-10-14T22:20:11.491Z,15.25
2022-10-14T22:23:12.923Z,15.28
2022-10-14T22:26:16.846Z,15.30
2022-10-14T22:29:18.341Z,15.29
2022-10-14T22:32:19.712Z,15.30
2022-10-14T22:35:22.771Z,15.28
2022-10-14T22:38:24.298Z,15.24
2022-10-14T22:41:27.907Z,15.25
2022-10-14T22:44:31.270Z,15.25
2022-10-14T22:47:32.792Z,15.22
2022-10-14T22:50:35.231Z,15.24
2022-10-14T22:53:38.049Z,15.23
2022-10-14T22:56:39.795Z,15.28
2022-10-14T22:59:41.543Z,15.27
2022-10-14T23:02:42.972Z,15.28
2022-10-14T23:05:44.374Z,15.29
2022-10-14T23:08:45.912Z,15.30
2022-10-14T23:11:47.409Z,15.32
2022-10-14T23:14:48.780Z,15.32
2022-10-14T23:17:50.153Z,15.33
2022-10-14T23:20:51.910Z,15.32
2022-10-14T23:23:56.074Z,15.32
2022-10-14T23:26:57.456Z,15.32
2022-10-14T23:29:58.925Z,15.33
2022-10-14T23:33:00.314Z,15.32
2022-10-14T23:36:06.377Z,15.34
2022-10-14T23:39:08.017Z,15.33
2022-10-14T23:42:09.413Z,15.37
2022-10-14T23:45:11.085Z,15.35
2022-10-14T23:48:12.454Z,15.34
2022-10-14T23:51:13.887Z,15.38
2022-10-14T23:54:15.500Z,15.38
2022-10-14T23:57:16.902Z,15.39
